Kmdw taf. Oct 5, 2023 · 1015 users online KMDW Chicago Midway...

METAR history KMDW · Chicago Midway International Airport Rece

overcast at 2,000 feet during the forecast period between 2200Z and 2400Z. (Refer to Figure 18.) According to the Weather Depiction Chart, the weather for a flight from southern Michigan to north Indiana is ceilings. greater than 3, 000 feet and visibility greater than 5 miles. What should pilots state initially when telephoning a weather ... METAR KMLI 152055Z 25006KT 1/2SM SN FZFG BKN008 OVC014 M05/M06 A2957 RMK A02 PRESFR SLP023 P0000 60000 T10501056 53017 · METAR KMDW 152045Z 23009KT 7/8SM -SN ...Impacts TAF Board. TAF Home. Plot. Data. Board. Info. For situational awareness. Not to be used for flight planning purposes. IDs: KMDW - Chicago/Midway Intl, IL, US. Issued at 1505 UTC 05 Jan 2023. Updated at 1700 UTC 05 Jan 2023. Potential Impact: None: Slight: Moderate: High: Time 1653Z 05/17Z 05/18Z 05/19Z 05/20Z 05/21ZThis entry means. rain began at 1835Z. (fig 12) The wind direction and velocity at KJFK is from. 180 true at 4 knots. (fig 12) What are the current conditions depicted for Chicago Midway Airport (KMDW)? "Sky 700 feet overcast, visibility 1 « SM, rain". " (fig 12) What are the wind conditions at Wink, Texas (KINK)?" determine magnetic heading for flight from Mercer County (3) to Minot (1). wind from 330 deg at 25 kts, TAS 100 kts, magnetic variation 10 deg east. 352 degrees. determine magnetic heading for flight from Sandpoint (1) to St. Maries (4). wind from 215 deg at 25 kts, TAS 125 kts. 169 degrees. Study ch 7-9 flashcards. C) 111 degrees at 2 knots, peak gusts 18 knots. B) 110 degrees at 12 knots, peak gusts 18 knots. (Refer to figure 12.) The remarks section for KMDW has RAB35 listed. This entry means. A) blowing mist has reduced the visibility to 1-1/2 SM. B) rain began at 1835Z. C) the barometer has risen .35 inches Hg. NOTE: LAMP data beyond the time of the TAF data is denoted as LAMP in Type and colored magenta. Raw TAF KMDW 271730Z 2718/2824 09010KT P6SM VCSH SCT015 BKN025 FM280100 07008KT P6SM SCT008 BKN020 FM280600 06006KT 5SM BR BKN008 FM281500 06008KT P6SM BKN015 FM282100 05008KT P6SM SCT025 BKN035 Raw METAR KMDW 271953Z 09013KT 9SM SCT015 BKN036 OVC044 20/16 A3004 RMK AO2 SLP166 T02000161 KMDW 271853Z ...PAMR 280153Z 29004KT 10SM CLR 11/01 A2980 RMK AO2 SLP091 T01060006. PAMR 280053Z 30004KT 10SM CLR 11/M01 A2979 RMK AO2 SLP087 T01061006. PAMR 272353Z 00000KT 10SM CLR 11/M02 A2978 RMK AO2 SLP084 T01061017 10111 20039 53004. PAMR 272253Z 03005KT 10SM CLR 11/M02 A2977 RMK AO2 SLP082 T01061022. Terminal Area Forecast. KMDW. RAW. Reported. Wed, 10/11 12:20 PM CDT. Valid. ... KMDW 111720Z 1118/1224 23005KT P6SM SCT080 FM112300 11006KT P6SM VCSH SCT030 BKN050The remarks section for KMDW has RAB35 listed. This entry means... -METAR KINK 12185z 11012G18KT 15SM SKC 25/17 A3000. -METAR KBOI 121854z 13004KT 30SM SCT150 17/6 A3015. -METAR KLAX 121852z 25004KT 6SM BR SCT007 SCT250 16/15 A2991. -SPECI KMDW 121856z 32005KT 1 1/2SM RA OVC007 17/16 A2980 RMK …AVIATION WEATHER CENTER SCN23-79: Upgrade of Aviation Weather Center Website METAR Data METAR Home Plot Data Board Info IDs: Format: Raw Decoded Include TAF Data at: 0455 UTC 09 Oct 2023 Page loaded: 04:55 UTC | 09:55 PM Pacific | 10:55 PM Mountain | 11:55 PM Central | 12:55 AM EasternKMDW 131353Z 10013G19KT 10SM BKN060 BKN075 OVC090 14/08 A2992 RMK AO2 SLP129 T01390083: Conditions at: KMDW (CHICAGO , IL, US) observed 1353 UTC 13 …TAF Home. Plot. Data. Board. Info. For situational awareness. Not to be used for flight planning purposes. IDs: KMDW - Chicago/Midway Intl, IL, US. Issued at 0901 UTC ... The remarks section for KMDW has RAB35 listed. This entry means Answer. 14.3 Pilot Weather Report (PIREP) ... Example TAF. The elements of a TAF are listed below: Type of report TAF is a routine forecast. TAF AMD is an amended forecast. ICAO station identifier; Date and time the forecast is actually prepared;20 jun 2013 ... SPECI KMDW 121856Z 32005KT 1 ½SM RA OVC007 17/16 A2980 RMKRAB35 SPECI ... In the TAF form KOKC, the "FM Group" is forecast for the hours from ...Oct 11, 2023 · AVIATION WEATHER CENTER. This site is changing on October 16, 2023. Preview the new site at Beta.AviationWeather.gov. SCN23-79: Upgrade of Aviation Weather Center Website. TAFs. Chicago Approach. Ground. 121.65 MHz. Midway Ground. Warning: Do not use this data for real-world aviation or navigation. No guarantee of current accuracy is given. Airport information for Chicago Midway Intl (KMDW) in , including runways, map, navaids, weather (METAR/TAF) and ATC frequencies. For flight simulation use only. Oct 11, 2023 · TAF for: KMDW (Chicago/Midway Intl, IL, US) issued at 0853 UTC 11 Oct 2023: Text: KMDW 110853Z 1109/1212 24005KT P6SM FEW100 : Forecast period: 0900 to 1900 UTC 11 October 2023: Forecast type: FROM: standard forecast or significant change: Winds: from the WSW (240 degrees) at 6 MPH (5 knots; 2.6 m/s) Visibility: 6 or more sm (10+ km) Ceiling: TAMPA. FL. US. 27.97. -82.53. 2. ADDS Station Table (full) Page loaded: 07:48 UTC | 12:48 AM Pacific | 01:48 AM Mountain | 02:48 AM Central | 03:48 AM Eastern. Aviation Weather Center Homepage provides comprehensive user-friendly aviation weather Text products and graphics.10000 feet AGL. Clouds: few clouds at 5000 feet AGL, broken clouds at 10000 feet AGL. TAF for: KMDW (Chicago/Midway Intl, IL, US) issued at 1130 UTC 22 Sep 2023. Text: KMDW 221130Z 2212/2318 14005KT P6SM -SHRA SCT070 OVC100. Forecast period: 1200 to 1600 UTC 22 September 2023.KMDW - Chicago/Midway Intl, IL, US. Issued at 2320 UTC 30 Aug 2023. Updated at 0003 UTC 31 Aug 2023. Potential Impact: None: Slight: Moderate: High: Time <<31/13Z 31/14Z 31/15Z 31/16Z 31/17Z 31/18Z ... NOTE: LAMP data beyond the time of the TAF data is denoted as LAMP in Type and colored magenta.raw taf kmdw 130251z 1303/1406 31010kt p6sm sct025 ovc050 fm131000 33008kt p6sm sct040 kmdw 130251z 1303/1406 31010kt p6sm sct025 ovc050 fm131000 33008kt p6sm sct040 AVIATION WEATHER CENTER SCN23-79: Upgrade of Aviation Weather Center Website METAR Data METAR Home Plot Data Board Info IDs: Format: Raw Decoded Include TAF Data at: 0455 UTC 09 Oct 2023 Page loaded: 04:55 UTC | 09:55 PM Pacific | 10:55 PM Mountain | 11:55 PM Central | 12:55 AM EasternTAF ; NOTAM ; History ; Airport ; Statistics ... KMDW B) 2309261157 E) MDW RWY 13C/31C CLSD CANCELED September 26, 2023 06:57 - September 29, 2023 06:57 LT ...Impacts TAF Board. TAF Home. Plot. Data. Board. Info. For situational awareness. Not to be used for flight planning purposes. IDs: KMDW - Chicago/Midway Intl, IL, US. Issued at 1505 UTC 05 Jan 2023. Updated at 1700 UTC 05 Jan 2023. Potential Impact: None: Slight: Moderate: High: Time 1653Z 05/17Z 05/18Z 05/19Z 05/20Z 05/21ZImpacts TAF Board. TAF Home. Plot. Data. Board. Info. For situational awareness. Not to be used for flight planning purposes. IDs: KMDW - Chicago/Midway Intl, IL, US. Issued at 0520 UTC 20 Aug 2023. Updated at 0844 UTC 20 Aug 2023. Potential Impact: None: Slight: Moderate: High: Time 0753Z 20/09Z 20/10Z 20/11Z 20/12Z 20/13ZKMDW - Chicago/Midway Intl, IL, US. Issued at 0902 UTC 20 Sep 2023. Updated at 1030 UTC 20 Sep 2023. Potential Impact. None. Slight. Moderate. High. NOTE: LAMP data beyond the time of the TAF data is denoted as LAMP in Type and colored magenta. Raw TAF. KMDW 200902Z 2009/2112 20009KT P6SM SCT060 BKN100. FM201200 20009KT P6SM VCTS BKN060CB.The remarks section for KMDW has RAB35 listed. This entry means Answer. 14.3 Pilot Weather Report (PIREP) ... Example TAF. The elements of a TAF are listed below: Type of report TAF is a routine forecast. TAF AMD is an amended forecast. ICAO station identifier; Date and time the forecast is actually prepared;TAF Dupage Airport. Dupage Airport is a midsized airport in Illinois, United States. The airport is located at latitude 41.90853 and longitude -88.24736. The airport has 4 runways: 2L/20R, 2R/20L, 10/28 and 15/33. The ICAO airport code of this field is KDPA. The local airport ID (FAA LID) of this airport is DPA. The airport's IATA code is DPA.KMDW (CHICAGO , IL, US) Text: KMDW 101120Z 1012/1118 28006KT P6SM SCT060 BKN100 : Forecast period: 1200 to 1600 UTC 10 October 2023 Forecast type: FROM: standard forecast or significant change Winds: from the W (280 degrees) at 7 MPH (6 knots; 3.1 m/s) Visibility: 6 or more miles (10+ km) Ceiling:Latest MDW TAF Impacts Board. KMDW: Aviation Forecast Discussion . MDW. Default Runway is 13/31 MDW Observations (ITWS missing when terminal doppler down): ASOS ITWS Oct 10, 2023 · METAR Chicago Midway International Airport - KMDW/MDW. Chicago Midway International Airport is a large airport in Illinois, United States. The airport is located at latitude 41.78594 and longitude -87.75253. The airport has 5 runways: 13C/31C, 4R/22L, 4L/22R, 13L/31R and 13R/31L. METAR for: KMDW (Chicago/Midway Intl, IL, US) Text: KMDW 131353Z 10013G19KT 10SM BKN060 BKN075 OVC090 14/08 A2992 RMK AO2 SLP129 T01390083: Temperature:KMDW - Chicago/Midway Intl, IL, US Issued at 0902 UTC 20 Sep 2023 Updated at 1030 UTC 20 Sep 2023 Potential Impact None Slight Moderate High NOTE: LAMP data beyond the time of the TAF data is denoted as LAMP in Type and colored magenta. Raw TAF KMDW 200902Z 2009/2112 20009KT P6SM SCT060 BKN100 FM201200 20009KT P6SM VCTS BKN060CB Impacts TAF Board. TAF Home. Plot. Data. Board. Info. For situational awareness. Not to be used for flight planning purposes. IDs: KMDW - Chicago/Midway Intl, IL, US. Issued at 1720 UTC 29 Jan 2023. Updated at 2049 UTC 29 Jan 2023. Potential Impact: None: Slight: Moderate: High: Time 1953Z 29/21Z 29/22Z 29/23Z 30/00Z 30/01ZMETAR Data. METAR Home. Plot. Data. Board. Info. IDs: Format: Raw Decoded Include TAF. Data at: 1956 UTC 22 Sep 2023. KGUS 221855Z 11008KT 10SM FEW180 BKN200 27/12 A3013 RMK AO2A SLP202 WND DATA ESTMD T02740122 $.KMDW - Chicago/Midway Intl, IL, US. Issued at 1120 UTC 08 Apr 2023. Updated at 1354 UTC 08 Apr 2023. Potential Impact: None: Slight: Moderate: High: Time 1253Z 08/14Z 08/15Z 08/16Z 08/17Z 08/18Z ... NOTE: LAMP data beyond the time of the TAF data is denoted as LAMP in Type and colored magenta.The remarks section for KMDW has RAB35 listed. This entry means... -METAR KINK 12185z 11012G18KT 15SM SKC 25/17 A3000. -METAR KBOI 121854z 13004KT 30SM SCT150 17/6 A3015. -METAR KLAX 121852z 25004KT 6SM BR SCT007 SCT250 16/15 A2991. -SPECI KMDW 121856z 32005KT 1 1/2SM RA OVC007 17/16 A2980 RMK …kmdw: taf: 2023/10/05: 10:30 utc: noaa: taf amd kmdw 051028z 0510/0612 22005 kt 6 sm-ra br sct 025 o vc 035 tempo 0510/0513 3 sm-ra br sct 015 bkn 025 fm 051300 24006 kt p6 sm sct 015 bkn 050 tempo 0513/0517 5 sm-ra br sct 010 bkn 015 fm 060300 30008 kt p6 sm sct 070KMDW (CHICAGO , IL, US) Text: KMDW 101120Z 1012/1118 28006KT P6SM SCT060 BKN100 : Forecast period: 1200 to 1600 UTC 10 October 2023 Forecast type: FROM: standard forecast or significant change Winds: from the W (280 degrees) at 7 MPH (6 knots; 3.1 m/s) Visibility: 6 or more miles (10+ km) Ceiling:data at: 2133 utc 24 sep 2023. kmdw 242053z 10009kt 10sm few100 bkn180 bkn250 24/15 a2999 rmk ao2 slp151 t02440150 56010 $ kmdw 242051z 2421/2524 10008kt p6sm few100 sct200 fm250300 09009kt p6sm vcsh sct080 bkn200 fm250600 11005kt p6sm few060 bkn100 fm252000 07009kt p6sm bkn090METAR Home. Plot. Data. Board. Info. IDs: Format: Raw Decoded Include TAF. Data at: 1007 UTC 11 Oct 2023. Region: TOP. KATL 110952Z 00000KT 10SM BKN200 BKN250 18/13 A2991 RMK AO2 SLP121 T01780133 $.METAR KMDW 121856Z AUTO 32005KT 1 1/2SM +RABR OVC007 17/16 A2980 5,180 pies. 5,800 pies. 5,880 pies. ¿Cuál es el pronóstico de turbulencia en el siguiente TAF?Aviation Routine Weather Report (METAR) – Private and Instrument METAR KMDW ... Terminal Aerodrome Forecast (TAF) – Private and Instrument W36 The terminal ...PHONE 773-884-4424. WX ASOS at DPA (16 nm W): PHONE 630-587-3668. CLASS B FREQS 120.55/306.925 FOR VFR AIRCRAFT REQUESTING TRAFFIC ADVISORIES OR TO TRANSITION CLASS B NORTH OF OHARE. CLASS B FREQS 133.5/349.0 FOR VFR AIRCRAFT REQUESTING TRAFFIC ADVISORIES OR TO TRANSITION CLASS B SOUTH OF OHARE.METAR for: KMDW (Chicago/Midway Intl, IL, US) Text: KMDW 061053Z 26008KT 10SM CLR 11/04 A2996 RMK AO2 SLP141 T01060044: Temperature: 10.6°C ( 51°F)Wind 7 mph from the South/Southeast. Visibility: 6 miles. Clear sky. TAF: KMDW 010520Z 0106/0212 15006KT P6SM SKC. Weather observations and forecasts of more than 4000 …BURLINGTON FLIGHT SERVICE STATION. NOTAMs facility: CEF (NOTAM-D service available) Attendance: SAT-SUN 0900-1700, ALL MON-FRI 0800-2300. Pattern altitude: RECTANGULAR TFC PAT: 1000 FT AGL LGT ACFT, 2000 FT AGL LRG/HVY ACFT; OVHD: 2500 FT AGL. Wind indicator: yes.Impacts TAF Board. TAF Home. Plot. Data. Board. Info. For situational awareness. Not to be used for flight planning purposes. IDs: KMDW - Chicago/Midway Intl, IL, US. Issued at 0251 UTC 13 Nov 2022. Updated at 0321 UTC 13 Nov 2022. Potential Impact: None: Slight: Moderate: High: Time 0253Z 13/04Z 13/05Z 13/06Z 13/07Z 13/08Zno significant weather observed at this time. METAR text: KMDW 100653Z 27006KT 10SM FEW100 07/M02 A2979 RMK AO2 SLP087 T00721017. Conditions at: KMDW (CHICAGO , IL, US) observed 0653 UTC 10 October 2023. Temperature: 7.2°C (45°F) Dewpoint: -1.7°C (29°F) [RH = 53%] Flight plan departing from KMDW - Chicago Midway Intl, arriving at KBOS - General Edward Lawrence Logan Intl. Distance 748 nm / 1,386 km. Download for FSX, X-Plane, PMDG, Infinite Flight, PDF or other products. ... TAF. KMDW 200312Z 2003/2106 16009KT P6SM SCT080 OVC100 FM200800 20008KT P6SM SCT080 BKN200 TEMPO …Data at: 1101 UTC 11 Oct 2023. KMDW 111053Z 25005KT 10SM CLR 05/01 A2982 RMK AO2 SLP101 T00500006. KMDW 110853Z 1109/1212 24005KT P6SM FEW100. FM111900 23008KT P6SM VCSH SCT050 BKN100. FM112200 13006KT 6SM -SHRA SCT030 BKN050. Sky 700 feet overcast, visibility 1-1/2 SM, rain. (Refer to Figure 14.) The base and tops of the overcast layer reported by a pilot are. 505 feet AGL. (Refer to Figure 14.) The wind and temperature at 12,000 feet MSL as reported by a pilot are. 080 degrees at 21 knots and -7 degrees C. (Refer to Figure 14.)Oct 5, 2023 · KMDW - Chicago Midway International Airport (18 nm NW) Loc | Ops ... TAF; KGYY 7nm NE : 101724Z 1018/1118 27011G18KT P6SM BKN060 FM110000 25005KT P6SM SCT060 KMDW METAR for: KMDW (Chicago/Midway Intl, IL, US) Text: KMDW 061053Z 26008KT 10SM CLR 11/04 A2996 RMK AO2 SLP141 T01060044: Temperature: 10.6°C ( 51°F)Oct 13, 2023 · KMDW (CHICAGO , IL, US) Text: KMDW 130910Z 1309/1412 09013G21KT P6SM BKN070 BKN150 : Forecast period: 0900 to 1500 UTC 13 October 2023 Forecast type: FROM: standard forecast or significant change Winds: from the E (90 degrees) at 15 MPH (13 knots; 6.7 m/s) gusting to 24 MPH (21 knots; 10.8 m/s) Visibility: Impacts TAF Board. TAF Home. Plot. Data. Board. Info. For situational awareness. Not to be used for flight planning purposes. IDs: KMDW - Chicago/Midway Intl, IL, US. Issued at 1725 UTC 28 Aug 2023. Updated at 1958 UTC 28 Aug 2023. Potential Impact: None: Slight: Moderate: High: Time <<29/08Z 29/09Z 29/10Z 29/11Z 29/12Zklot 141345z 02019g24kt 2 1/2sm -ra br ovc007 11/11 a2974 no taf found for klot. kmdw 141353z 05013g25kt 2 1/2sm -ra br bkn007 bkn011 ovc024 12/10 a2975 rmk ao2 pk wnd …TAF Home. Plot. Data. Board. Info. For situational awareness. Not to be used for flight planning purposes. IDs: KMDW - Chicago/Midway Intl, IL, US. Issued at 0901 UTC ... AVIATION WEATHER CENTER. This site is changing on October 16, 2023. Preview the new site at Beta.AviationWeather.gov. SCN23-79: Upgrade of Aviation Weather Center Website. TAFs.PAMR 280153Z 29004KT 10SM CLR 11/01 A2980 RMK AO2 SLP091 T01060006. PAMR 280053Z 30004KT 10SM CLR 11/M01 A2979 RMK AO2 SLP087 T01061006. PAMR 272353Z 00000KT 10SM CLR 11/M02 A2978 RMK AO2 SLP084 T01061017 10111 20039 53004. PAMR 272253Z 03005KT 10SM CLR 11/M02 A2977 RMK AO2 SLP082 T01061022. Data at: 1431 UTC 04 Oct 2023. KMDW 041353Z 20008KT 10SM FEW070 FEW090 SCT200 BKN250 23/14 A3000 RMK AO2 SLP150 T02280144. KMDW 041140Z 0412/0518 21013G22KT P6SM BKN100. FM050000 22008KT P6SM VCSH SCT035 BKN080. FM050700 23006KT 6SM -RA SCT025 OVC040. Chicago Midway International Airport (KMDW) METAR. Weather conditions on Tue, 10 Oct 2023 09:53:00 +0000 (18 min. ago): Present conditions: Dry; Clouds: A few at 3048 meters; Visibility: 16093 meters; Wind: 280 degrees at 5 knots; Temperature: 6 celsius; Dew point:-1 celsius; Pressure: 29.79 inHg ; Remarks: AO2 SLP088 T00561011METAR Los Angeles International Airport - KLAX/LAX. Los Angeles International Airport is a large airport in California, United States. The airport is located at latitude 33.94312 and longitude -118.40880. The airport has 4 runways: 7L/25R, 6R/24L, 6L/24R and 7R/25L. The ICAO airport code of this field is KLAX.This entry means. Rain began at 1835z. (Refer to Figure 12) What are the current conditions depicted for Chicago Midway Airport (KMDW)? Sky 700ft overcast, visibility 1-1/2 SM, rain. (Refer to figure 14) The base and tops of the overcast layer reported by a pilot are. 7,200 ft MSL and 8,900 ft MSL.kmdw 131053z 09013g21kt 10sm few022 ovc065 14/10 a2993 rmk ao2 slp132 t01390100 $ kmdw 131123z 1312/1418 09013g21kt p6sm bkn070 bkn150 fm131500 10014g25kt p6sm -shra few015 bkn035 fm131900 11014g23kt 5sm -ra sct008 bkn015 ovc025 tempo 1320/1324 2sm ra br bkn008 fm140000 11014g23kt 3sm shra sct005 ovc008 prob30 1402/1406 1sm +tsra bkn005 ovc007cb fm141000 06013g24kt 5sm -shra ovc006 fm141400 ... NOTE: LAMP data beyond the time of the TAF data is denoted as LAMP in Type and colored magenta. Raw TAF. KMDW 180540Z 1806/1912 34005KT P6SM SCT050. FM182000 11006KT P6SM SCT060. METAR Board. Radar Display. Forecast Discussion. For situational awareness. Not to be used for flight planning purposes. A. aircraft identification or the pilot's name B. true airspeed C. fuel on board. 3528-1. when speaking to an AFSS weather briefer, you should state. A. PIC's full name & address B. summary of qualifications. C. whether the flight is VFR or IFR. Study Chapter 7 flashcards.KMDW (CHICAGO , IL, US) Text: KMDW 101120Z 1012/1118 28006KT P6SM SCT060 BKN100 : Forecast period: 1200 to 1600 UTC 10 October 2023 Forecast type: FROM: standard forecast or significant change Winds: from the W (280 degrees) at 7 MPH (6 knots; 3.1 m/s) Visibility: 6 or more miles (10+ km) Ceiling:Download our app. Easy access to all aviation weather on your mobile phone and tablet. With many features not available on the website, like offline support and a personal airport list.Impacts TAF Board. TAF Home. Plot. Data. Board. Info. For situational awareness. Not to be used for flight planning purposes. IDs: KMDW - Chicago/Midway Intl, IL, US. Issued at 0901 UTC 22 Apr 2023. Updated at 0956 UTC 22 Apr 2023. Potential Impact: None: Slight: Moderate: High: Time 0953Z 22/10Z 22/11Z 22/12Z 22/13Z 22/14ZTAF ; NOTAM ; History ; Airport ; Statistics ... KMDW B) 2309261157 E) MDW RWY 13C/31C CLSD CANCELED September 26, 2023 06:57 - September 29, 2023 06:57 LT ...Impacts TAF Board. TAF Home. Plot. Data. Board. Info. For situational awareness. Not to be used for flight planning purposes. IDs: KMDW - Chicago/Midway Intl, IL, US. Issued at 2100 UTC 15 Mar 2023. Updated at 2212 UTC 15 Mar 2023. Potential Impact: None: Slight: Moderate: High: Time <<16/11Z 16/12Z 16/13Z 16/14Z 16/15ZRaw TAF KMDW 182320Z 1900/2006 29015G25KT 6SM -SHSN BKN035 FM190200 30012G18KT P6SM SCT035 FM190900 29009KT P6SM SKC FM191500 26012G18KT P6SM SKC METAR Board Radar Display Forecast Discussion. For situational awareness. Not to be used for flight planning purposes.METAR Los Angeles International Airport - KLAX/LAX. Los Angeles International Airport is a large airport in California, United States. The airport is located at latitude 33.94312 and longitude -118.40880. The airport has 4 runways: 7L/25R, 6R/24L, 6L/24R and 7R/25L. The ICAO airport code of this field is KLAX.Data at: 1431 UTC 04 Oct 2023. KMDW 041353Z 20008KT 10SM FEW070 FEW090 SCT200 BKN250 23/14 A3000 RMK AO2 SLP150 T02280144. KMDW 041140Z 0412/0518 21013G22KT P6SM BKN100. FM050000 22008KT P6SM VCSH SCT035 BKN080. FM050700 23006KT 6SM -RA SCT025 OVC040.METAR text: KDTW 120753Z 04004KT 9SM FEW050 BKN095 OVC210 09/07 A2986 RMK AO2 SLP112 T00890072: Conditions at: KDTW (DETROIT/WAYNE , MI, US) observed 0753 UTC 12 October 2023KMDW - Chicago/Midway Intl, IL, US Issued at 0902 UTC 20 Sep 2023 Updated at 1030 UTC 20 Sep 2023 Potential Impact None Slight Moderate High NOTE: LAMP data beyond the time of the TAF data is denoted as LAMP in Type and colored magenta. Raw TAF KMDW 200902Z 2009/2112 20009KT P6SM SCT060 BKN100 FM201200 20009KT P6SM VCTS BKN060CB. kmdw 131053z 09013g21kt 10sm few022 ovc065METAR text: KCLE 130751Z 00000KT 10SM BKN140 METAR text: KCLE 130751Z 00000KT 10SM BKN140 11/08 A3001 RMK AO2 SLP178 T01060078: Conditions at: KCLE (CLEVELAND , OH, US) observed 0751 UTC 13 October 2023 Oct 12, 2023 · TAF for: KDEN (Denver Intl, CO, US) issue determine magnetic heading for flight from Mercer County (3) to Minot (1). wind from 330 deg at 25 kts, TAS 100 kts, magnetic variation 10 deg east. 352 degrees. determine magnetic heading for flight from Sandpoint (1) to St. Maries (4). wind from 215 deg at 25 kts, TAS 125 kts. 169 degrees. Study ch 7-9 flashcards.Complete aeronautical information about Chicago Midway International Airport (Chicago, IL, USA), including location, runways, taxiways, navaids, radio frequencies, FBO information, fuel prices, sunrise and sunset times, aerial photo, airport diagram. METAR KMDW 010453Z 13004KT 10SM FEW250 24/16 A3000 RMK...

Continue Reading